createdAt,value
2022-10-11T00:02:21.532Z,35.33
2022-10-11T00:04:58.963Z,33.13
2022-10-11T00:07:41.004Z,35.42
2022-10-11T00:10:20.260Z,35.95
2022-10-11T00:12:56.307Z,29.38
2022-10-11T00:15:39.122Z,27.92
2022-10-11T00:18:25.201Z,25.10
2022-10-11T00:21:13.204Z,25.48
2022-10-11T00:23:46.556Z,24.70
2022-10-11T00:29:02.022Z,22.38
2022-10-11T00:31:48.616Z,23.80
2022-10-11T00:34:29.731Z,23.63
2022-10-11T00:37:01.218Z,21.83
2022-10-11T00:39:37.071Z,21.60
2022-10-11T00:42:22.824Z,21.83
2022-10-11T00:45:33.070Z,20.48
2022-10-11T00:48:27.676Z,21.65
2022-10-11T00:50:57.424Z,20.50
2022-10-11T00:53:51.223Z,18.40
2022-10-11T00:56:26.161Z,18.33
2022-10-11T00:59:07.355Z,19.17
2022-10-11T01:01:46.266Z,19.58
2022-10-11T01:04:26.432Z,20.27
2022-10-11T01:07:11.293Z,20.88
2022-10-11T01:09:42.195Z,22.30
2022-10-11T01:12:31.577Z,20.15
2022-10-11T01:15:27.704Z,20.92
2022-10-11T01:18:36.671Z,22.27
2022-10-11T01:21:51.075Z,23.45
2022-10-11T01:24:59.767Z,23.63
2022-10-11T01:27:57.218Z,23.35
2022-10-11T01:30:36.447Z,23.20
2022-10-11T01:33:36.047Z,24.15
2022-10-11T01:36:37.690Z,24.45
2022-10-11T01:39:53.405Z,22.30
2022-10-11T01:42:32.643Z,23.77
2022-10-11T01:45:07.105Z,23.42
2022-10-11T01:47:39.128Z,29.08
2022-10-11T01:50:46.761Z,23.40
2022-10-11T01:53:45.761Z,23.02
2022-10-11T01:56:53.806Z,25.45
2022-10-11T01:59:59.082Z,24.33
2022-10-11T02:02:46.383Z,23.85
2022-10-11T02:05:32.499Z,24.35
2022-10-11T02:08:39.652Z,26.92
2022-10-11T02:11:31.493Z,25.02
2022-10-11T02:14:14.028Z,24.60
2022-10-11T02:16:59.630Z,24.42
2022-10-11T02:19:44.052Z,24.75
2022-10-11T02:22:39.462Z,24.08
2022-10-11T02:25:19.081Z,25.27
2022-10-11T02:28:03.530Z,24.45
2022-10-11T02:30:42.055Z,26.52
2022-10-11T02:33:21.705Z,25.02
2022-10-11T02:36:09.099Z,22.90
2022-10-11T02:39:07.299Z,22.23
2022-10-11T02:41:52.349Z,24.05
2022-10-11T02:44:59.641Z,24.77
2022-10-11T02:47:38.088Z,20.33
2022-10-11T02:50:15.056Z,21.13
2022-10-11T02:52:50.185Z,23.02
2022-10-11T02:55:31.820Z,24.70
2022-10-11T02:58:15.092Z,21.08
2022-10-11T03:00:57.317Z,22.77
2022-10-11T03:03:52.203Z,20.88
2022-10-11T03:06:29.622Z,20.27
2022-10-11T03:09:10.885Z,19.17
2022-10-11T03:11:44.288Z,18.95
2022-10-11T03:14:26.321Z,23.17
2022-10-11T03:17:35.120Z,23.80
2022-10-11T03:20:07.107Z,28.13
2022-10-11T03:22:44.336Z,29.77
2022-10-11T03:25:19.721Z,33.53
2022-10-11T03:28:00.688Z,37.78
2022-10-11T03:30:50.015Z,33.65
2022-10-11T03:33:31.132Z,35.17
2022-10-11T03:36:04.755Z,36.55
2022-10-11T03:38:45.947Z,36.22
2022-10-11T03:41:15.431Z,36.72
2022-10-11T03:43:53.203Z,38.67
2022-10-11T03:46:26.049Z,43.85
2022-10-11T03:49:20.060Z,44.35
2022-10-11T03:51:59.094Z,45.85
2022-10-11T03:54:31.097Z,42.85
2022-10-11T03:57:14.411Z,49.55
2022-10-11T03:59:51.912Z,48.13
2022-10-11T04:02:36.986Z,47.67
2022-10-11T04:05:15.267Z,43.35
2022-10-11T04:08:00.034Z,45.40
2022-10-11T04:10:51.060Z,47.53
2022-10-11T04:13:20.772Z,46.85
2022-10-11T04:15:57.047Z,46.53
2022-10-11T04:18:32.082Z,42.95
2022-10-11T04:21:15.492Z,49.85
2022-10-11T04:23:52.608Z,47.15
2022-10-11T04:26:36.126Z,44.20
2022-10-11T04:29:11.059Z,47.50
2022-10-11T04:31:52.155Z,49.08
2022-10-11T04:34:35.932Z,44.90
2022-10-11T04:37:16.484Z,46.58
2022-10-11T04:39:59.276Z,45.05
2022-10-11T04:42:37.679Z,44.28
2022-10-11T04:45:10.084Z,42.15
2022-10-11T04:47:45.529Z,39.13
2022-10-11T04:50:24.040Z,38.95
2022-10-11T04:53:02.001Z,41.38
2022-10-11T04:55:51.219Z,37.30
2022-10-11T04:58:29.010Z,36.20
2022-10-11T05:04:10.210Z,33.53
2022-10-11T05:06:54.634Z,34.47
2022-10-11T05:09:36.193Z,40.13
2022-10-11T05:12:14.741Z,43.28
2022-10-11T05:15:02.449Z,36.83
2022-10-11T05:17:48.936Z,35.88
2022-10-11T05:20:24.365Z,39.15
2022-10-11T05:23:08.567Z,38.22
2022-10-11T05:25:46.594Z,31.35
2022-10-11T05:28:27.118Z,34.28
2022-10-11T05:31:10.908Z,36.38
2022-10-11T05:33:46.731Z,33.65
2022-10-11T05:36:38.049Z,34.88
2022-10-11T05:39:25.506Z,35.03
2022-10-11T05:42:09.929Z,31.90
2022-10-11T05:44:40.228Z,30.63
2022-10-11T05:47:26.786Z,27.93
2022-10-11T05:50:06.703Z,31.02
2022-10-11T05:52:46.149Z,31.00
2022-10-11T05:55:13.639Z,25.95
2022-10-11T05:58:03.800Z,22.77
2022-10-11T06:00:46.852Z,21.80
2022-10-11T06:03:24.039Z,19.38
2022-10-11T06:06:15.348Z,19.35
2022-10-11T06:08:57.480Z,17.45
2022-10-11T06:11:39.213Z,17.95
2022-10-11T06:14:17.039Z,17.65
2022-10-11T06:16:48.879Z,16.40
2022-10-11T06:19:38.625Z,16.05
2022-10-11T06:22:20.701Z,15.23
2022-10-11T06:25:00.834Z,12.57
2022-10-11T06:27:46.366Z,13.52
2022-10-11T06:30:33.821Z,10.88
2022-10-11T06:33:18.948Z,9.43
2022-10-11T06:36:02.397Z,8.13
2022-10-11T06:38:38.002Z,9.45
2022-10-11T06:41:21.296Z,9.30
2022-10-11T06:44:14.286Z,10.75
2022-10-11T06:46:52.770Z,10.00
2022-10-11T06:49:34.571Z,10.18
2022-10-11T06:52:19.837Z,11.30
2022-10-11T06:55:00.326Z,11.75
2022-10-11T06:57:35.767Z,12.38
2022-10-11T07:00:12.906Z,11.77
2022-10-11T07:02:48.212Z,12.20
2022-10-11T07:05:33.049Z,12.45
2022-10-11T07:08:07.809Z,13.68
2022-10-11T07:10:44.055Z,12.13
2022-10-11T07:13:22.518Z,12.88
2022-10-11T07:15:55.354Z,10.40
2022-10-11T07:18:36.412Z,10.32
2022-10-11T07:21:07.507Z,8.23
2022-10-11T07:23:40.968Z,8.35
2022-10-11T07:26:09.437Z,8.02
2022-10-11T07:28:52.183Z,7.93
2022-10-11T07:31:34.812Z,7.13
2022-10-11T07:34:12.196Z,7.43
2022-10-11T07:36:54.000Z,9.52
2022-10-11T07:39:34.451Z,8.35
2022-10-11T07:42:10.088Z,7.65
2022-10-11T07:44:48.650Z,7.65
2022-10-11T07:47:31.150Z,7.55
2022-10-11T07:49:57.958Z,7.82
2022-10-11T07:52:37.537Z,9.98
2022-10-11T07:55:17.723Z,11.45
2022-10-11T07:57:58.460Z,13.80
2022-10-11T08:00:40.393Z,26.00
2022-10-11T08:03:26.252Z,23.48
2022-10-11T08:06:06.332Z,19.67
2022-10-11T08:08:49.974Z,18.67
2022-10-11T08:11:42.879Z,19.38
2022-10-11T08:14:21.166Z,15.38
2022-10-11T08:17:01.175Z,14.05
2022-10-11T08:19:38.542Z,12.02
2022-10-11T08:22:20.122Z,9.77
2022-10-11T08:24:59.918Z,8.15
2022-10-11T08:27:34.854Z,8.88
2022-10-11T08:30:21.143Z,7.93
2022-10-11T08:32:56.406Z,7.18
2022-10-11T08:35:35.294Z,8.40
2022-10-11T08:38:14.227Z,8.27
2022-10-11T08:40:58.713Z,7.75
2022-10-11T08:43:50.349Z,8.45
2022-10-11T08:47:00.312Z,7.75
2022-10-11T08:49:43.403Z,7.50
2022-10-11T08:52:41.187Z,7.57
2022-10-11T08:55:45.115Z,7.32
2022-10-11T08:58:22.437Z,9.35
2022-10-11T09:01:13.747Z,9.13
2022-10-11T09:04:06.191Z,8.27
2022-10-11T09:07:07.488Z,9.55
2022-10-11T09:09:52.948Z,8.32
2022-10-11T09:12:56.244Z,9.10
2022-10-11T09:15:46.926Z,8.77
2022-10-11T09:18:52.286Z,8.18
2022-10-11T09:21:50.378Z,8.57
2022-10-11T09:24:38.050Z,8.68
2022-10-11T09:28:02.260Z,8.77
2022-10-11T09:30:45.814Z,8.68
2022-10-11T09:33:39.488Z,9.68
2022-10-11T09:36:25.599Z,10.90
2022-10-11T09:39:33.092Z,10.90
2022-10-11T09:42:12.024Z,11.50
2022-10-11T09:45:03.414Z,10.18
2022-10-11T09:47:55.531Z,9.38
2022-10-11T09:50:35.745Z,11.18
2022-10-11T09:53:08.180Z,12.02
2022-10-11T09:56:07.868Z,11.15
2022-10-11T09:58:48.680Z,11.07
2022-10-11T10:01:32.836Z,11.63
2022-10-11T10:04:13.769Z,13.20
2022-10-11T10:06:46.063Z,11.43
2022-10-11T10:09:34.103Z,12.30
2022-10-11T10:12:14.026Z,11.20
2022-10-11T10:15:06.970Z,12.57
2022-10-11T10:17:51.333Z,12.13
2022-10-11T10:20:33.578Z,10.45
2022-10-11T10:23:20.977Z,11.18
2022-10-11T10:26:19.974Z,11.88
2022-10-11T10:29:09.599Z,11.38
2022-10-11T10:32:14.905Z,13.15
2022-10-11T10:35:20.098Z,10.85
2022-10-11T10:38:15.895Z,12.48
2022-10-11T10:40:53.616Z,11.88
2022-10-11T10:43:41.205Z,11.32
2022-10-11T10:46:33.324Z,12.10
2022-10-11T10:49:52.696Z,10.50
2022-10-11T10:52:42.997Z,12.05
2022-10-11T10:55:31.775Z,10.18
2022-10-11T10:58:39.338Z,9.55
2022-10-11T11:01:32.142Z,8.15
2022-10-11T11:04:28.016Z,8.10
2022-10-11T11:07:24.949Z,8.75
2022-10-11T11:10:19.504Z,7.70
2022-10-11T11:13:41.456Z,7.35
2022-10-11T11:19:49.233Z,9.43
2022-10-11T11:22:40.284Z,10.43
2022-10-11T11:26:00.741Z,10.05
2022-10-11T11:28:57.551Z,8.93
2022-10-11T11:32:13.890Z,9.63
2022-10-11T11:35:15.250Z,9.35
2022-10-11T11:38:02.542Z,9.52
2022-10-11T11:40:54.357Z,9.18
2022-10-11T11:44:06.014Z,9.60
2022-10-11T11:46:43.599Z,9.80
2022-10-11T11:52:43.456Z,10.52
2022-10-11T11:55:25.617Z,9.07
2022-10-11T11:58:20.184Z,10.00
2022-10-11T12:01:30.964Z,11.05
2022-10-11T12:04:28.563Z,9.68
2022-10-11T12:07:19.833Z,10.10
2022-10-11T12:09:55.311Z,10.13
2022-10-11T12:12:39.389Z,10.70
2022-10-11T12:15:30.365Z,11.02
2022-10-11T12:18:17.613Z,10.93
2022-10-11T12:21:30.620Z,11.15
2022-10-11T12:24:16.163Z,10.88
2022-10-11T12:27:03.089Z,10.68
2022-10-11T12:29:50.086Z,11.25
2022-10-11T12:32:30.812Z,11.07
2022-10-11T12:35:36.520Z,11.40
2022-10-11T12:38:22.720Z,11.50
2022-10-11T12:41:21.469Z,10.77
2022-10-11T12:44:08.929Z,11.40
2022-10-11T12:47:22.954Z,12.27
2022-10-11T12:50:12.157Z,10.55
2022-10-11T12:53:12.453Z,11.18
2022-10-11T12:56:09.145Z,11.40
2022-10-11T12:58:52.947Z,11.90
2022-10-11T13:01:37.030Z,12.48
2022-10-11T13:04:28.799Z,11.18
2022-10-11T13:07:18.514Z,11.95
2022-10-11T13:13:26.082Z,10.70
2022-10-11T13:16:09.426Z,10.98
2022-10-11T13:18:53.767Z,10.93
2022-10-11T13:21:47.572Z,11.45
2022-10-11T13:24:29.049Z,11.80
2022-10-11T13:27:10.726Z,11.50
2022-10-11T13:29:47.633Z,11.43
2022-10-11T13:32:36.468Z,10.48
2022-10-11T13:35:22.355Z,11.43
2022-10-11T13:38:00.435Z,11.32
2022-10-11T13:40:35.839Z,11.63
2022-10-11T13:43:12.667Z,11.88
2022-10-11T13:45:50.448Z,11.35
2022-10-11T13:48:47.861Z,10.68
2022-10-11T13:51:36.302Z,11.43
2022-10-11T13:54:13.120Z,11.48
2022-10-11T13:56:58.621Z,11.85
2022-10-11T14:02:22.543Z,11.90
2022-10-11T14:05:03.573Z,11.38
2022-10-11T14:07:42.167Z,11.20
2022-10-11T14:10:38.905Z,11.48
2022-10-11T14:13:26.903Z,11.85
2022-10-11T14:16:27.034Z,11.02
2022-10-11T14:19:10.667Z,11.65
2022-10-11T14:21:55.080Z,11.70
2022-10-11T14:25:05.284Z,11.68
2022-10-11T14:27:42.793Z,11.63
2022-10-11T14:30:27.407Z,12.20
2022-10-11T14:33:14.181Z,12.13
2022-10-11T14:35:50.567Z,12.45
2022-10-11T14:38:30.776Z,11.98
2022-10-11T14:41:16.064Z,12.05
2022-10-11T14:43:57.195Z,12.30
2022-10-11T14:49:17.087Z,12.07
2022-10-11T14:51:51.281Z,11.95
2022-10-11T14:54:33.806Z,12.82
2022-10-11T14:57:12.268Z,12.98
2022-10-11T14:59:50.072Z,12.60
2022-10-11T15:02:28.113Z,13.73
2022-10-11T15:05:04.126Z,13.77
2022-10-11T15:07:37.137Z,13.43
2022-10-11T15:10:16.378Z,14.85
2022-10-11T15:12:49.865Z,12.77
2022-10-11T15:15:32.861Z,13.70
2022-10-11T15:18:37.289Z,13.55
2022-10-11T15:21:27.727Z,12.95
2022-10-11T15:24:14.462Z,13.90
2022-10-11T15:26:51.334Z,13.80
2022-10-11T15:29:24.356Z,14.05
2022-10-11T15:32:04.378Z,12.85
2022-10-11T15:34:46.858Z,14.15
2022-10-11T15:37:28.698Z,14.82
2022-10-11T15:40:18.081Z,15.25
2022-10-11T15:43:04.135Z,14.52
2022-10-11T15:45:39.547Z,15.10
2022-10-11T15:48:21.196Z,14.63
2022-10-11T15:50:59.323Z,15.18
2022-10-11T15:53:37.090Z,15.70
2022-10-11T15:56:12.349Z,15.50
2022-10-11T15:58:50.346Z,16.75
2022-10-11T16:01:21.170Z,15.88
2022-10-11T16:04:01.550Z,14.15
2022-10-11T16:06:41.162Z,14.73
2022-10-11T16:09:18.829Z,17.23
2022-10-11T16:11:54.569Z,17.63
2022-10-11T16:14:33.886Z,18.17
2022-10-11T16:17:12.301Z,17.48
2022-10-11T16:19:53.398Z,17.23
2022-10-11T16:22:29.282Z,16.30
2022-10-11T16:25:02.495Z,17.38
2022-10-11T16:27:40.662Z,19.75
2022-10-11T16:30:22.077Z,17.67
2022-10-11T16:33:13.130Z,17.73
2022-10-11T16:35:49.316Z,19.15
2022-10-11T16:38:27.548Z,19.50
2022-10-11T16:40:57.284Z,20.58
2022-10-11T16:43:31.936Z,19.23
2022-10-11T16:46:03.581Z,20.33
2022-10-11T16:48:36.035Z,21.92
2022-10-11T16:51:09.685Z,23.00
2022-10-11T16:53:48.111Z,22.23
2022-10-11T16:56:37.403Z,24.77
2022-10-11T16:59:21.058Z,26.77
2022-10-11T17:01:58.940Z,26.83
2022-10-11T17:04:35.094Z,26.95
2022-10-11T17:07:21.917Z,30.10
2022-10-11T17:10:04.164Z,29.23
2022-10-11T17:12:46.539Z,28.58
2022-10-11T17:15:29.409Z,34.88
2022-10-11T17:18:15.938Z,36.60
2022-10-11T17:20:51.913Z,43.42
2022-10-11T17:23:35.872Z,50.22
2022-10-11T17:26:23.638Z,47.53
2022-10-11T17:31:53.498Z,53.58
2022-10-11T17:34:29.120Z,77.07
2022-10-11T17:37:06.032Z,78.50
2022-10-11T17:39:47.283Z,76.30
2022-10-11T17:42:37.561Z,84.13
2022-10-11T17:45:22.005Z,97.85
2022-10-11T17:47:58.779Z,92.47
2022-10-11T17:50:50.356Z,113.38
2022-10-11T17:53:35.610Z,110.38
2022-10-11T17:56:18.766Z,114.43
2022-10-11T17:59:14.270Z,123.18
2022-10-11T18:01:50.372Z,124.03
2022-10-11T18:04:29.489Z,118.05
2022-10-11T18:09:56.348Z,110.25
2022-10-11T18:12:35.056Z,107.18
2022-10-11T18:15:16.073Z,104.35
2022-10-11T18:17:47.366Z,96.77
2022-10-11T18:20:29.859Z,85.80
2022-10-11T18:23:03.496Z,79.10
2022-10-11T18:25:45.829Z,80.57
2022-10-11T18:28:31.775Z,72.15
2022-10-11T18:31:17.958Z,70.20
2022-10-11T18:34:00.168Z,64.47
2022-10-11T18:36:50.028Z,64.97
2022-10-11T18:39:23.716Z,60.50
2022-10-11T18:42:00.468Z,61.78
2022-10-11T18:44:38.196Z,56.95
2022-10-11T18:47:32.489Z,52.60
2022-10-11T18:50:06.774Z,49.17
2022-10-11T18:52:48.674Z,49.22
2022-10-11T18:55:33.067Z,47.55
2022-10-11T18:58:12.074Z,48.08
2022-10-11T19:00:53.199Z,46.38
2022-10-11T19:03:52.785Z,48.47
2022-10-11T19:06:32.879Z,49.80
2022-10-11T19:09:13.332Z,49.40
2022-10-11T19:11:50.901Z,48.10
2022-10-11T19:14:29.450Z,48.83
2022-10-11T19:17:11.171Z,49.25
2022-10-11T19:25:01.461Z,50.05
2022-10-11T19:27:39.653Z,54.20
2022-10-11T19:30:17.880Z,55.10
2022-10-11T19:32:48.212Z,59.90
2022-10-11T19:35:20.460Z,58.90
2022-10-11T19:38:00.729Z,56.15
2022-10-11T19:40:41.937Z,59.50
2022-10-11T19:43:22.112Z,54.83
2022-10-11T19:45:54.682Z,53.35
2022-10-11T19:48:31.093Z,53.40
2022-10-11T19:51:15.065Z,51.28
2022-10-11T19:54:03.564Z,50.53
2022-10-11T19:56:43.875Z,49.80
2022-10-11T19:59:39.152Z,50.20
2022-10-11T20:02:15.730Z,46.78
2022-10-11T20:05:00.969Z,51.00
2022-10-11T20:07:49.871Z,46.33
2022-10-11T20:10:36.071Z,43.85
2022-10-11T20:13:14.615Z,48.65
2022-10-11T20:15:55.557Z,44.53
2022-10-11T20:18:46.084Z,48.67
2022-10-11T20:21:29.517Z,48.90
2022-10-11T20:23:59.309Z,45.75
2022-10-11T20:26:48.782Z,44.35
2022-10-11T20:29:27.274Z,45.28
2022-10-11T20:32:02.062Z,47.13
2022-10-11T20:34:56.484Z,46.47
2022-10-11T20:37:32.187Z,46.45
2022-10-11T20:40:07.316Z,44.80
2022-10-11T20:42:43.262Z,48.37
2022-10-11T20:45:21.616Z,45.00
2022-10-11T20:48:00.856Z,48.05
2022-10-11T20:50:51.723Z,44.17
2022-10-11T20:53:24.962Z,46.38
2022-10-11T20:56:06.396Z,57.03
2022-10-11T20:58:53.842Z,50.00
2022-10-11T21:01:43.191Z,50.30
2022-10-11T21:04:30.676Z,54.45
2022-10-11T21:07:11.729Z,52.55
2022-10-11T21:09:55.869Z,53.55
2022-10-11T21:12:40.025Z,51.80
2022-10-11T21:15:21.080Z,55.47
2022-10-11T21:17:59.695Z,50.92
2022-10-11T21:20:32.981Z,52.15
2022-10-11T21:23:08.843Z,52.28
2022-10-11T21:25:58.106Z,52.38
2022-10-11T21:28:34.137Z,51.00
2022-10-11T21:31:15.598Z,51.85
2022-10-11T21:33:46.217Z,49.20
2022-10-11T21:36:24.955Z,52.58
2022-10-11T21:38:56.255Z,51.65
2022-10-11T21:41:37.433Z,47.80
2022-10-11T21:44:20.622Z,53.72
2022-10-11T21:47:08.447Z,54.85
2022-10-11T21:49:44.459Z,53.97
2022-10-11T21:52:17.466Z,53.72
2022-10-11T21:54:47.693Z,49.55
2022-10-11T21:57:20.294Z,52.05
2022-10-11T21:59:59.066Z,56.35
2022-10-11T22:02:37.934Z,59.70
2022-10-11T22:05:15.288Z,57.00
2022-10-11T22:07:48.981Z,54.47
2022-10-11T22:10:23.655Z,59.33
2022-10-11T22:13:03.068Z,54.55
2022-10-11T22:15:40.265Z,54.58
2022-10-11T22:18:20.855Z,53.83
2022-10-11T22:21:22.518Z,52.97
2022-10-11T22:26:30.115Z,54.17
2022-10-11T22:29:09.046Z,56.63
2022-10-11T22:31:42.460Z,59.90
2022-10-11T22:34:19.060Z,61.35
2022-10-11T22:36:51.178Z,63.33
2022-10-11T22:39:18.653Z,60.13
2022-10-11T22:42:03.290Z,60.40
2022-10-11T22:44:36.996Z,56.40
2022-10-11T22:47:21.198Z,59.47
2022-10-11T22:52:28.954Z,53.40
2022-10-11T22:55:08.196Z,53.00
2022-10-11T22:57:55.584Z,54.47
2022-10-11T23:00:39.098Z,53.67
2022-10-11T23:03:18.587Z,54.33
2022-10-11T23:06:00.472Z,51.42
2022-10-11T23:08:32.972Z,52.35
2022-10-11T23:11:18.142Z,49.60
2022-10-11T23:13:47.902Z,49.78
2022-10-11T23:16:29.632Z,50.10
2022-10-11T23:19:07.842Z,50.63
2022-10-11T23:21:51.094Z,50.33
2022-10-11T23:24:46.992Z,50.30
2022-10-11T23:27:32.161Z,48.97
2022-10-11T23:30:07.781Z,48.78
2022-10-11T23:32:45.303Z,53.63
2022-10-11T23:35:18.762Z,53.55
2022-10-11T23:38:07.324Z,51.78
2022-10-11T23:40:45.182Z,51.10
2022-10-11T23:43:44.242Z,56.40
2022-10-11T23:46:24.902Z,52.65
2022-10-11T23:48:51.734Z,54.85
2022-10-11T23:51:26.289Z,53.45
2022-10-11T23:54:04.100Z,50.42
2022-10-11T23:56:48.095Z,52.20
2022-10-11T23:59:30.000Z,50.45
